createdAt,value
2018-07-28T00:00:16.470Z,18.63
2018-07-28T00:01:16.552Z,18.62
2018-07-28T00:02:16.817Z,18.63
2018-07-28T00:03:17.090Z,18.59
2018-07-28T00:04:16.363Z,18.56
2018-07-28T00:05:16.647Z,18.56
2018-07-28T00:06:16.904Z,18.56
2018-07-28T00:07:17.169Z,18.59
2018-07-28T00:08:16.445Z,18.62
2018-07-28T00:09:16.726Z,18.59
2018-07-28T00:10:17.001Z,18.63
2018-07-28T00:11:17.035Z,18.62
2018-07-28T00:12:16.297Z,18.60
2018-07-28T00:13:16.565Z,18.58
2018-07-28T00:14:16.832Z,18.56
2018-07-28T00:15:17.117Z,18.56
2018-07-28T00:16:16.388Z,18.58
2018-07-28T00:17:16.655Z,18.52
2018-07-28T00:18:16.919Z,18.51
2018-07-28T00:19:17.184Z,18.51
2018-07-28T00:20:16.469Z,18.48
2018-07-28T00:21:16.517Z,18.48
2018-07-28T00:22:16.793Z,18.42
2018-07-28T00:23:17.065Z,18.39
2018-07-28T00:24:16.336Z,18.39
2018-07-28T00:25:16.597Z,18.35
2018-07-28T00:26:16.875Z,18.29
2018-07-28T00:27:17.160Z,18.29
2018-07-28T00:28:16.431Z,18.29
2018-07-28T00:29:16.708Z,18.28
2018-07-28T00:30:16.995Z,18.29
2018-07-28T00:31:17.047Z,18.29
2018-07-28T00:32:16.326Z,18.29
2018-07-28T00:33:16.588Z,18.28
2018-07-28T00:34:16.861Z,18.25
2018-07-28T00:35:17.143Z,18.27
2018-07-28T00:36:16.428Z,18.28
2018-07-28T00:37:16.697Z,18.05
2018-07-28T00:38:16.972Z,18.01
2018-07-28T00:39:16.248Z,18.01
2018-07-28T00:40:16.528Z,18.07
2018-07-28T00:41:16.580Z,18.07
2018-07-28T00:42:16.863Z,18.10
2018-07-28T00:43:17.131Z,18.10
2018-07-28T00:44:16.400Z,18.10
2018-07-28T00:45:16.663Z,18.05
2018-07-28T00:46:16.928Z,18.05
2018-07-28T00:47:17.210Z,18.03
2018-07-28T00:48:16.477Z,18.05
2018-07-28T00:49:16.743Z,18.03
2018-07-28T00:50:17.019Z,18.03
2018-07-28T00:51:17.071Z,18.03
2018-07-28T00:52:16.339Z,18.00
2018-07-28T00:53:16.604Z,18.00
2018-07-28T00:54:16.865Z,17.97
2018-07-28T00:55:17.136Z,17.91
2018-07-28T00:56:16.398Z,17.89
2018-07-28T00:57:16.666Z,17.81
2018-07-28T00:58:16.930Z,17.86
2018-07-28T00:59:17.190Z,17.83
2018-07-28T01:00:16.464Z,17.83
2018-07-28T01:01:16.504Z,17.80
2018-07-28T01:02:16.771Z,17.74
2018-07-28T01:03:17.097Z,17.76
2018-07-28T01:04:16.372Z,17.80
2018-07-28T01:05:16.652Z,17.86
2018-07-28T01:06:16.915Z,17.89
2018-07-28T01:07:17.704Z,17.83
2018-07-28T01:08:16.967Z,17.81
2018-07-28T01:09:16.245Z,17.81
2018-07-28T01:10:16.522Z,17.86
2018-07-28T01:11:16.586Z,17.90
2018-07-28T01:12:16.852Z,17.79
2018-07-28T01:13:16.438Z,17.76
2018-07-28T01:14:16.705Z,17.76
2018-07-28T01:15:16.978Z,17.70
2018-07-28T01:16:16.247Z,17.69
2018-07-28T01:17:16.531Z,17.69
2018-07-28T01:18:16.799Z,17.69
2018-07-28T01:19:17.064Z,17.70
2018-07-28T01:20:16.349Z,17.69
2018-07-28T01:21:16.403Z,17.73
2018-07-28T01:22:16.667Z,17.72
2018-07-28T01:23:16.924Z,17.69
2018-07-28T01:24:17.186Z,17.70
2018-07-28T01:25:16.451Z,17.69
2018-07-28T01:26:16.723Z,17.69
2018-07-28T01:27:16.993Z,17.69
2018-07-28T01:28:16.260Z,17.69
2018-07-28T01:29:16.525Z,17.68
2018-07-28T01:30:16.804Z,17.68
2018-07-28T01:31:16.871Z,17.68
2018-07-28T01:32:17.139Z,17.66
2018-07-28T01:33:16.406Z,17.65
2018-07-28T01:34:16.679Z,17.60
2018-07-28T01:35:16.952Z,17.62
2018-07-28T01:36:16.217Z,17.59
2018-07-28T01:37:16.487Z,17.63
2018-07-28T01:38:16.755Z,17.62
2018-07-28T01:39:17.030Z,17.63
2018-07-28T01:40:16.303Z,17.60
2018-07-28T01:41:16.351Z,17.57
2018-07-28T01:42:16.625Z,17.59
2018-07-28T01:43:16.895Z,17.57
2018-07-28T01:44:17.153Z,17.54
2018-07-28T01:45:16.415Z,17.54
2018-07-28T01:46:16.681Z,17.46
2018-07-28T01:47:16.963Z,17.49
2018-07-28T01:48:16.224Z,17.54
2018-07-28T01:49:16.513Z,17.56
2018-07-28T01:50:16.796Z,17.56
2018-07-28T01:51:16.844Z,17.56
2018-07-28T01:52:17.109Z,17.53
2018-07-28T01:53:16.474Z,17.50
2018-07-28T01:54:16.739Z,17.48
2018-07-28T01:55:17.016Z,17.45
2018-07-28T01:56:16.285Z,17.45
2018-07-28T01:57:16.553Z,17.42
2018-07-28T01:58:16.834Z,17.39
2018-07-28T01:59:17.120Z,17.36
2018-07-28T02:00:16.408Z,17.39
2018-07-28T02:01:16.449Z,17.36
2018-07-28T02:02:16.718Z,17.32
2018-07-28T02:03:16.986Z,17.26
2018-07-28T02:04:16.250Z,17.19
2018-07-28T02:05:16.523Z,17.17
2018-07-28T02:06:16.802Z,17.17
2018-07-28T02:07:16.381Z,17.15
2018-07-28T02:08:16.658Z,17.17
2018-07-28T02:09:16.945Z,17.15
2018-07-28T02:10:16.237Z,17.22
2018-07-28T02:11:16.272Z,17.22
2018-07-28T02:12:16.548Z,17.25
2018-07-28T02:13:16.813Z,17.19
2018-07-28T02:14:17.087Z,17.17
2018-07-28T02:15:16.350Z,17.18
2018-07-28T02:16:16.621Z,17.17
2018-07-28T02:17:16.893Z,17.18
2018-07-28T02:18:17.165Z,17.17
2018-07-28T02:19:16.429Z,17.17
2018-07-28T02:20:16.929Z,17.15
2018-07-28T02:21:16.761Z,17.15
2018-07-28T02:22:17.023Z,17.14
2018-07-28T02:23:16.294Z,17.15
2018-07-28T02:24:16.566Z,17.07
2018-07-28T02:25:16.845Z,17.04
2018-07-28T02:26:17.118Z,17.01
2018-07-28T02:27:16.380Z,17.03
2018-07-28T02:28:16.655Z,17.03
2018-07-28T02:29:16.920Z,17.05
2018-07-28T02:30:16.624Z,17.05
2018-07-28T02:31:16.650Z,17.10
2018-07-28T02:32:16.922Z,17.15
2018-07-28T02:33:17.205Z,17.17
2018-07-28T02:34:16.492Z,17.24
2018-07-28T02:35:16.766Z,17.25
2018-07-28T02:36:17.039Z,17.28
2018-07-28T02:37:16.304Z,17.26
2018-07-28T02:38:16.575Z,17.22
2018-07-28T02:39:16.849Z,17.17
2018-07-28T02:40:17.131Z,17.14
2018-07-28T02:41:17.170Z,17.14
2018-07-28T02:42:16.446Z,17.19
2018-07-28T02:43:16.723Z,17.17
2018-07-28T02:44:16.999Z,17.18
2018-07-28T02:45:16.278Z,17.15
2018-07-28T02:46:16.555Z,17.13
2018-07-28T02:47:16.825Z,17.13
2018-07-28T02:48:17.087Z,17.11
2018-07-28T02:49:16.354Z,17.08
2018-07-28T02:50:16.638Z,17.04
2018-07-28T02:51:16.666Z,17.05
2018-07-28T02:52:16.944Z,17.07
2018-07-28T02:53:16.214Z,17.03
2018-07-28T02:54:16.484Z,17.00
2018-07-28T02:55:16.764Z,16.97
2018-07-28T02:56:17.048Z,16.95
2018-07-28T02:57:16.320Z,16.95
2018-07-28T02:58:16.597Z,16.95
2018-07-28T02:59:16.866Z,16.90
2018-07-28T03:00:17.260Z,16.87
2018-07-28T03:01:17.195Z,16.78
2018-07-28T03:02:16.458Z,16.78
2018-07-28T03:03:16.734Z,16.77
2018-07-28T03:04:16.998Z,16.77
2018-07-28T03:05:16.280Z,16.73
2018-07-28T03:06:16.549Z,16.68
2018-07-28T03:07:16.825Z,16.66
2018-07-28T03:08:17.097Z,16.67
2018-07-28T03:09:16.372Z,16.63
2018-07-28T03:10:16.663Z,16.56
2018-07-28T03:11:16.705Z,16.55
2018-07-28T03:12:16.970Z,16.56
2018-07-28T03:13:16.242Z,16.56
2018-07-28T03:14:16.532Z,16.50
2018-07-28T03:15:16.811Z,16.52
2018-07-28T03:16:17.090Z,16.49
2018-07-28T03:17:16.366Z,16.45
2018-07-28T03:18:16.641Z,16.45
2018-07-28T03:19:16.921Z,16.49
2018-07-28T03:20:17.211Z,16.46
2018-07-28T03:21:16.248Z,16.49
2018-07-28T03:22:16.536Z,16.47
2018-07-28T03:23:16.847Z,16.47
2018-07-28T03:24:17.127Z,16.47
2018-07-28T03:25:16.397Z,16.47
2018-07-28T03:26:16.669Z,16.46
2018-07-28T03:27:16.945Z,16.47
2018-07-28T03:28:16.220Z,16.49
2018-07-28T03:29:16.488Z,16.50
2018-07-28T03:30:16.778Z,16.50
2018-07-28T03:31:16.805Z,16.49
2018-07-28T03:32:17.404Z,16.53
2018-07-28T03:33:16.680Z,16.52
2018-07-28T03:34:16.964Z,16.53
2018-07-28T03:35:16.226Z,16.53
2018-07-28T03:36:16.501Z,16.55
2018-07-28T03:37:16.775Z,16.55
2018-07-28T03:38:17.039Z,16.55
2018-07-28T03:39:16.305Z,16.55
2018-07-28T03:40:16.596Z,16.52
2018-07-28T03:41:16.635Z,16.50
2018-07-28T03:42:16.908Z,16.47
2018-07-28T03:43:17.175Z,16.46
2018-07-28T03:44:16.445Z,16.45
2018-07-28T03:45:16.709Z,16.39
2018-07-28T03:46:16.977Z,16.36
2018-07-28T03:47:16.245Z,16.35
2018-07-28T03:48:16.522Z,16.35
2018-07-28T03:49:16.817Z,16.35
2018-07-28T03:50:16.244Z,16.33
2018-07-28T03:51:16.291Z,16.24
2018-07-28T03:52:16.552Z,16.19
2018-07-28T03:53:16.822Z,16.18
2018-07-28T03:54:17.089Z,16.19
2018-07-28T03:55:16.370Z,16.22
2018-07-28T03:56:16.643Z,16.18
2018-07-28T03:57:16.906Z,16.11
2018-07-28T03:58:17.174Z,16.09
2018-07-28T03:59:16.442Z,16.07
2018-07-28T04:00:16.728Z,16.08
2018-07-28T04:01:16.773Z,16.07
2018-07-28T04:02:17.041Z,16.05
2018-07-28T04:03:16.311Z,16.05
2018-07-28T04:04:16.631Z,16.07
2018-07-28T04:05:17.254Z,16.07
2018-07-28T04:06:16.526Z,16.07
2018-07-28T04:07:16.798Z,16.08
2018-07-28T04:08:17.072Z,16.08
2018-07-28T04:09:16.337Z,16.09
2018-07-28T04:10:16.617Z,16.15
2018-07-28T04:11:16.674Z,16.12
2018-07-28T04:12:16.953Z,16.17
2018-07-28T04:13:16.231Z,16.15
2018-07-28T04:14:16.534Z,16.18
2018-07-28T04:15:16.836Z,16.18
2018-07-28T04:16:17.102Z,16.22
2018-07-28T04:17:16.381Z,16.24
2018-07-28T04:18:16.654Z,16.27
2018-07-28T04:19:16.919Z,16.27
2018-07-28T04:20:17.220Z,16.27
2018-07-28T04:21:16.228Z,16.29
2018-07-28T04:22:16.508Z,16.29
2018-07-28T04:23:16.777Z,16.29
2018-07-28T04:24:17.054Z,18.15
2018-07-28T04:25:16.325Z,16.40
2018-07-28T04:26:16.620Z,16.40
2018-07-28T04:27:16.895Z,16.40
2018-07-28T04:28:17.170Z,18.32
2018-07-28T04:29:16.447Z,18.26
2018-07-28T04:30:16.726Z,18.26
2018-07-28T04:31:16.783Z,18.26
2018-07-28T04:32:17.044Z,18.22
2018-07-28T04:33:16.316Z,18.22
2018-07-28T04:34:16.590Z,18.29
2018-07-28T04:35:16.872Z,18.36
2018-07-28T04:36:17.136Z,18.42
2018-07-28T04:37:16.408Z,18.49
2018-07-28T04:38:16.672Z,18.51
2018-07-28T04:39:16.946Z,18.54
2018-07-28T04:40:16.230Z,16.91
2018-07-28T04:41:16.273Z,16.91
2018-07-28T04:42:16.548Z,16.91
2018-07-28T04:43:16.813Z,17.03
2018-07-28T04:44:17.082Z,17.03
2018-07-28T04:45:16.353Z,17.03
2018-07-28T04:46:16.625Z,18.61
2018-07-28T04:47:16.893Z,18.64
2018-07-28T04:48:17.167Z,18.66
2018-07-28T04:49:16.438Z,18.73
2018-07-28T04:50:16.723Z,18.83
2018-07-28T04:51:16.739Z,18.99
2018-07-28T04:52:17.005Z,18.98
2018-07-28T04:53:16.277Z,19.01
2018-07-28T04:54:16.542Z,19.05
2018-07-28T04:55:16.810Z,19.05
2018-07-28T04:56:17.086Z,19.10
2018-07-28T04:57:16.361Z,19.24
2018-07-28T04:58:16.629Z,19.22
2018-07-28T04:59:16.900Z,19.29
2018-07-28T05:00:17.192Z,19.36
2018-07-28T05:01:16.266Z,19.40
2018-07-28T05:02:16.544Z,17.32
2018-07-28T05:03:16.814Z,17.32
2018-07-28T05:04:17.081Z,17.32
2018-07-28T05:05:16.350Z,19.59
2018-07-28T05:06:16.614Z,19.62
2018-07-28T05:07:16.918Z,19.77
2018-07-28T05:08:16.329Z,19.74
2018-07-28T05:09:16.610Z,17.43
2018-07-28T05:10:16.885Z,17.43
2018-07-28T05:11:16.935Z,17.43
2018-07-28T05:12:17.227Z,19.60
2018-07-28T05:13:16.503Z,19.62
2018-07-28T05:14:16.769Z,19.73
2018-07-28T05:15:17.040Z,17.62
2018-07-28T05:16:16.323Z,17.62
2018-07-28T05:17:16.594Z,17.62
2018-07-28T05:18:16.864Z,17.72
2018-07-28T05:19:17.128Z,17.73
2018-07-28T05:20:16.400Z,17.77
2018-07-28T05:21:16.465Z,17.77
2018-07-28T05:22:16.739Z,17.77
2018-07-28T05:23:17.001Z,17.83
2018-07-28T05:24:16.265Z,17.83
2018-07-28T05:25:16.564Z,17.93
2018-07-28T05:26:16.833Z,17.93
2018-07-28T05:27:17.099Z,18.04
2018-07-28T05:28:16.358Z,18.12
2018-07-28T05:29:16.630Z,18.12
2018-07-28T05:30:16.922Z,18.22
2018-07-28T05:31:16.963Z,18.27
2018-07-28T05:32:16.227Z,18.27
2018-07-28T05:33:16.514Z,18.28
2018-07-28T05:34:16.787Z,18.39
2018-07-28T05:35:17.077Z,18.42
2018-07-28T05:36:16.382Z,18.44
2018-07-28T05:37:16.818Z,18.44
2018-07-28T05:38:16.417Z,18.51
2018-07-28T05:39:16.679Z,18.59
2018-07-28T05:40:16.969Z,18.60
2018-07-28T05:41:16.988Z,18.75
2018-07-28T05:42:16.259Z,18.77
2018-07-28T05:43:16.528Z,18.82
2018-07-28T05:44:16.806Z,18.88
2018-07-28T05:45:17.080Z,18.95
2018-07-28T05:46:16.343Z,19.00
2018-07-28T05:47:16.614Z,19.00
2018-07-28T05:48:16.879Z,19.20
2018-07-28T05:49:17.152Z,19.25
2018-07-28T05:50:16.438Z,19.44
2018-07-28T05:51:16.487Z,19.53
2018-07-28T05:52:16.762Z,19.70
2018-07-28T05:53:17.028Z,19.80
2018-07-28T05:54:16.317Z,19.89
2018-07-28T05:55:16.597Z,19.93
2018-07-28T05:56:16.867Z,20.03
2018-07-28T05:57:17.448Z,20.11
2018-07-28T05:58:16.743Z,20.34
2018-07-28T05:59:17.013Z,20.44
2018-07-28T06:00:16.305Z,20.56
2018-07-28T06:01:16.370Z,20.78
2018-07-28T06:02:16.670Z,21.09
2018-07-28T06:03:17.056Z,21.23
2018-07-28T06:04:16.322Z,21.38
2018-07-28T06:05:16.619Z,21.48
2018-07-28T06:06:16.889Z,21.65
2018-07-28T06:07:17.165Z,21.69
2018-07-28T06:08:16.427Z,21.78
2018-07-28T06:09:16.697Z,21.82
2018-07-28T06:10:16.971Z,21.85
2018-07-28T06:11:17.013Z,21.97
2018-07-28T06:12:16.284Z,22.06
2018-07-28T06:13:16.551Z,22.07
2018-07-28T06:14:16.860Z,22.05
2018-07-28T06:15:16.296Z,22.06
2018-07-28T06:16:16.565Z,22.13
2018-07-28T06:17:16.829Z,22.16
2018-07-28T06:18:17.097Z,22.19
2018-07-28T06:19:16.369Z,22.17
2018-07-28T06:20:16.673Z,22.09
2018-07-28T06:21:16.690Z,22.03
2018-07-28T06:22:16.972Z,21.97
2018-07-28T06:23:16.239Z,21.95
2018-07-28T06:24:16.525Z,21.95
2018-07-28T06:25:16.809Z,21.86
2018-07-28T06:26:17.077Z,21.83
2018-07-28T06:27:16.335Z,21.93
2018-07-28T06:28:16.610Z,21.93
2018-07-28T06:29:16.892Z,21.97
2018-07-28T06:30:17.194Z,21.99
2018-07-28T06:31:16.228Z,22.13
2018-07-28T06:32:16.504Z,22.15
2018-07-28T06:33:16.775Z,22.19
2018-07-28T06:34:17.052Z,22.38
2018-07-28T06:35:16.588Z,22.43
2018-07-28T06:36:16.864Z,22.65
2018-07-28T06:37:17.129Z,22.75
2018-07-28T06:38:16.394Z,22.98
2018-07-28T06:39:16.655Z,23.00
2018-07-28T06:40:16.946Z,23.30
2018-07-28T06:41:16.962Z,23.33
2018-07-28T06:42:16.232Z,23.56
2018-07-28T06:43:16.505Z,23.69
2018-07-28T06:44:16.783Z,24.12
2018-07-28T06:45:17.049Z,24.23
2018-07-28T06:46:16.500Z,24.35
2018-07-28T06:47:16.822Z,24.68
2018-07-28T06:48:16.222Z,24.33
2018-07-28T06:49:16.491Z,24.26
2018-07-28T06:50:16.783Z,24.74
2018-07-28T06:51:16.818Z,24.61
2018-07-28T06:52:17.086Z,24.59
2018-07-28T06:53:16.350Z,24.99
2018-07-28T06:54:16.629Z,25.29
2018-07-28T06:55:16.909Z,25.33
2018-07-28T06:56:17.208Z,25.62
2018-07-28T06:57:16.480Z,25.79
2018-07-28T06:58:16.746Z,25.69
2018-07-28T06:59:17.017Z,25.50
2018-07-28T07:00:16.305Z,25.70
2018-07-28T07:01:16.367Z,25.95
2018-07-28T07:02:16.649Z,25.90
2018-07-28T07:03:16.908Z,25.90
2018-07-28T07:04:17.181Z,25.15
2018-07-28T07:05:16.445Z,24.85
2018-07-28T07:06:16.708Z,25.23
2018-07-28T07:07:16.977Z,25.47
2018-07-28T07:08:16.447Z,25.23
2018-07-28T07:09:16.738Z,25.47
2018-07-28T07:10:17.020Z,25.49
2018-07-28T07:11:17.085Z,25.56
2018-07-28T07:12:16.360Z,25.64
2018-07-28T07:13:16.626Z,25.80
2018-07-28T07:14:16.887Z,25.42
2018-07-28T07:15:17.161Z,25.80
2018-07-28T07:16:16.432Z,25.81
2018-07-28T07:17:16.705Z,25.64
2018-07-28T07:18:16.977Z,25.64
2018-07-28T07:19:16.248Z,25.59
2018-07-28T07:20:16.540Z,25.47
2018-07-28T07:21:16.573Z,25.55
2018-07-28T07:22:16.845Z,25.46
2018-07-28T07:23:17.113Z,25.42
2018-07-28T07:24:16.382Z,25.56
2018-07-28T07:25:16.655Z,25.63
2018-07-28T07:26:16.931Z,25.32
2018-07-28T07:27:17.208Z,25.40
2018-07-28T07:28:16.474Z,25.57
2018-07-28T07:29:16.739Z,25.76
2018-07-28T07:30:17.028Z,25.57
2018-07-28T07:31:17.077Z,25.69
2018-07-28T07:32:16.347Z,25.55
2018-07-28T07:33:16.624Z,25.81
2018-07-28T07:34:16.896Z,25.60
2018-07-28T07:35:17.170Z,25.70
2018-07-28T07:36:16.533Z,25.73
2018-07-28T07:37:17.026Z,25.62
2018-07-28T07:38:16.485Z,25.59
2018-07-28T07:39:16.769Z,25.94
2018-07-28T07:40:17.053Z,25.84
2018-07-28T07:41:17.083Z,25.67
2018-07-28T07:42:16.348Z,25.76
2018-07-28T07:43:16.627Z,25.97
2018-07-28T07:44:16.894Z,26.12
2018-07-28T07:45:17.167Z,26.13
2018-07-28T07:46:16.435Z,26.02
2018-07-28T07:47:16.810Z,26.05
2018-07-28T07:48:16.251Z,26.05
2018-07-28T07:49:16.522Z,25.85
2018-07-28T07:50:16.786Z,25.81
2018-07-28T07:51:16.827Z,26.02
2018-07-28T07:52:17.107Z,26.11
2018-07-28T07:53:16.380Z,26.22
2018-07-28T07:54:16.664Z,26.25
2018-07-28T07:55:16.948Z,26.17
2018-07-28T07:56:16.205Z,26.05
2018-07-28T07:57:16.473Z,26.07
2018-07-28T07:58:16.741Z,26.12
2018-07-28T07:59:17.004Z,26.08
2018-07-28T08:00:16.273Z,26.25
2018-07-28T08:01:16.326Z,26.27
2018-07-28T08:02:16.600Z,26.38
2018-07-28T08:03:16.873Z,26.38
2018-07-28T08:04:17.142Z,26.40
2018-07-28T08:05:16.414Z,26.36
2018-07-28T08:06:16.702Z,26.38
2018-07-28T08:07:16.996Z,26.31
2018-07-28T08:08:16.273Z,26.39
2018-07-28T08:09:16.549Z,26.62
2018-07-28T08:10:16.835Z,26.48
2018-07-28T08:11:16.865Z,26.64
2018-07-28T08:12:17.125Z,26.59
2018-07-28T08:13:16.393Z,26.53
2018-07-28T08:14:16.667Z,26.62
2018-07-28T08:15:16.941Z,26.82
2018-07-28T08:16:16.213Z,26.73
2018-07-28T08:17:16.487Z,26.71
2018-07-28T08:18:16.761Z,26.97
2018-07-28T08:19:17.025Z,26.91
2018-07-28T08:20:16.459Z,27.21
2018-07-28T08:21:16.353Z,27.15
2018-07-28T08:22:16.638Z,27.08
2018-07-28T08:23:16.919Z,27.13
2018-07-28T08:24:17.201Z,27.10
2018-07-28T08:25:16.474Z,27.11
2018-07-28T08:26:16.747Z,27.17
2018-07-28T08:27:17.013Z,27.21
2018-07-28T08:28:16.288Z,27.24
2018-07-28T08:29:16.558Z,27.26
2018-07-28T08:30:16.837Z,27.55
2018-07-28T08:31:16.870Z,27.59
2018-07-28T08:32:17.137Z,27.56
2018-07-28T08:33:16.438Z,27.56
2018-07-28T08:34:16.799Z,28.07
2018-07-28T08:35:17.166Z,27.91
2018-07-28T08:36:16.434Z,27.72
2018-07-28T08:37:16.714Z,27.72
2018-07-28T08:38:16.990Z,27.82
2018-07-28T08:39:16.257Z,27.82
2018-07-28T08:40:16.530Z,28.03
2018-07-28T08:41:16.571Z,28.04
2018-07-28T08:42:16.842Z,28.00
2018-07-28T08:43:17.118Z,28.07
2018-07-28T08:44:16.378Z,28.04
2018-07-28T08:45:16.654Z,28.10
2018-07-28T08:46:16.931Z,28.16
2018-07-28T08:47:17.215Z,28.13
2018-07-28T08:48:16.483Z,28.11
2018-07-28T08:49:16.855Z,28.18
2018-07-28T08:50:16.345Z,28.20
2018-07-28T08:51:16.383Z,28.21
2018-07-28T08:52:16.655Z,28.13
2018-07-28T08:53:16.928Z,28.11
2018-07-28T08:54:17.204Z,28.44
2018-07-28T08:55:16.469Z,28.45
2018-07-28T08:56:16.747Z,28.72
2018-07-28T08:57:17.009Z,28.72
2018-07-28T08:58:16.281Z,29.09
2018-07-28T08:59:16.542Z,29.00
2018-07-28T09:00:16.832Z,29.07
2018-07-28T09:01:16.873Z,29.06
2018-07-28T09:02:17.144Z,28.97
2018-07-28T09:03:16.412Z,29.10
2018-07-28T09:04:16.683Z,29.24
2018-07-28T09:05:16.960Z,29.21
2018-07-28T09:06:16.223Z,29.14
2018-07-28T09:07:16.496Z,29.03
2018-07-28T09:08:16.765Z,29.26
2018-07-28T09:09:17.047Z,29.38
2018-07-28T09:10:16.353Z,29.44
2018-07-28T09:11:16.390Z,29.31
2018-07-28T09:12:16.696Z,29.41
2018-07-28T09:13:17.025Z,29.23
2018-07-28T09:14:16.294Z,29.03
2018-07-28T09:15:16.571Z,28.86
2018-07-28T09:16:16.846Z,28.82
2018-07-28T09:17:17.124Z,28.62
2018-07-28T09:18:16.393Z,28.75
2018-07-28T09:19:16.664Z,28.76
2018-07-28T09:20:16.940Z,28.76
2018-07-28T09:21:16.990Z,28.89
2018-07-28T09:22:16.266Z,28.79
2018-07-28T09:23:16.542Z,29.24
2018-07-28T09:24:16.996Z,29.31
2018-07-28T09:25:16.278Z,29.27
2018-07-28T09:26:16.559Z,29.26
2018-07-28T09:27:16.836Z,29.36
2018-07-28T09:28:17.109Z,29.29
2018-07-28T09:29:16.373Z,29.33
2018-07-28T09:30:16.660Z,29.38
2018-07-28T09:31:16.694Z,29.34
2018-07-28T09:32:16.958Z,29.29
2018-07-28T09:33:16.225Z,29.34
2018-07-28T09:34:16.502Z,29.45
2018-07-28T09:35:16.778Z,29.68
2018-07-28T09:36:17.043Z,29.69
2018-07-28T09:37:16.321Z,29.73
2018-07-28T09:38:16.590Z,29.57
2018-07-28T09:39:16.858Z,29.67
2018-07-28T09:40:17.135Z,29.61
2018-07-28T09:41:17.177Z,29.67
2018-07-28T09:42:16.446Z,29.67
2018-07-28T09:43:16.734Z,29.64
2018-07-28T09:44:17.000Z,29.68
2018-07-28T09:45:16.561Z,29.69
2018-07-28T09:46:16.926Z,29.76
2018-07-28T09:47:16.252Z,29.85
2018-07-28T09:48:16.525Z,29.76
2018-07-28T09:49:16.800Z,29.75
2018-07-28T09:50:17.111Z,29.76
2018-07-28T09:51:17.118Z,29.75
2018-07-28T09:52:16.401Z,29.54
2018-07-28T09:53:16.676Z,29.61
2018-07-28T09:54:16.945Z,29.73
2018-07-28T09:55:16.226Z,29.65
2018-07-28T09:56:16.628Z,29.59
2018-07-28T09:57:17.017Z,29.68
2018-07-28T09:58:16.284Z,29.71
2018-07-28T09:59:16.551Z,29.85
2018-07-28T10:00:16.839Z,29.89
2018-07-28T10:01:16.861Z,30.12
2018-07-28T10:02:17.150Z,29.99
2018-07-28T10:03:16.425Z,30.03
2018-07-28T10:04:16.695Z,29.93
2018-07-28T10:05:16.959Z,29.93
2018-07-28T10:06:16.231Z,29.99
2018-07-28T10:07:16.510Z,30.20
2018-07-28T10:08:16.789Z,30.20
2018-07-28T10:09:17.057Z,30.20
2018-07-28T10:10:16.324Z,30.16
2018-07-28T10:11:16.378Z,30.16
2018-07-28T10:12:16.652Z,30.19
2018-07-28T10:13:16.917Z,30.05
2018-07-28T10:14:17.184Z,30.07
2018-07-28T10:15:16.466Z,29.95
2018-07-28T10:16:16.779Z,29.98
2018-07-28T10:17:16.208Z,30.16
2018-07-28T10:18:16.478Z,30.06
2018-07-28T10:19:16.754Z,29.85
2018-07-28T10:20:17.039Z,29.78
2018-07-28T10:21:17.097Z,29.69
2018-07-28T10:22:16.358Z,29.64
2018-07-28T10:23:16.641Z,29.61
2018-07-28T10:24:16.905Z,29.61
2018-07-28T10:25:17.168Z,29.42
2018-07-28T10:26:16.448Z,29.42
2018-07-28T10:27:16.722Z,29.29
2018-07-28T10:28:16.999Z,29.29
2018-07-28T10:29:16.281Z,29.44
2018-07-28T10:30:16.609Z,29.47
2018-07-28T10:31:16.591Z,29.48
2018-07-28T10:32:16.864Z,29.31
2018-07-28T10:33:17.133Z,27.91
2018-07-28T10:34:16.412Z,27.01
2018-07-28T10:35:16.680Z,26.45
2018-07-28T10:36:17.018Z,26.17
2018-07-28T10:37:16.453Z,26.09
2018-07-28T10:38:16.725Z,26.11
2018-07-28T10:39:16.990Z,25.46
2018-07-28T10:40:16.266Z,24.81
2018-07-28T10:41:16.324Z,24.06
2018-07-28T10:42:16.592Z,23.02
2018-07-28T10:43:16.855Z,22.30
2018-07-28T10:44:17.126Z,22.54
2018-07-28T10:45:16.404Z,21.61
2018-07-28T10:46:16.675Z,21.45
2018-07-28T10:47:16.944Z,21.57
2018-07-28T10:48:16.212Z,20.87
2018-07-28T10:49:16.515Z,21.23
2018-07-28T10:50:16.790Z,21.47
2018-07-28T10:51:16.831Z,21.54
2018-07-28T10:52:17.434Z,21.44
2018-07-28T10:53:16.706Z,21.62
2018-07-28T10:54:16.990Z,21.75
2018-07-28T10:55:16.271Z,21.76
2018-07-28T10:56:16.548Z,21.76
2018-07-28T10:57:16.839Z,21.83
2018-07-28T10:58:17.106Z,22.05
2018-07-28T10:59:16.382Z,22.23
2018-07-28T11:00:16.692Z,22.35
2018-07-28T11:01:16.705Z,22.43
2018-07-28T11:02:16.975Z,22.50
2018-07-28T11:03:16.246Z,22.43
2018-07-28T11:04:16.512Z,22.51
2018-07-28T11:05:16.797Z,22.72
2018-07-28T11:06:17.064Z,22.85
2018-07-28T11:07:16.331Z,23.03
2018-07-28T11:08:16.601Z,23.05
2018-07-28T11:09:16.878Z,23.16
2018-07-28T11:10:17.162Z,23.23
2018-07-28T11:11:17.195Z,23.23
2018-07-28T11:12:16.466Z,23.41
2018-07-28T11:13:16.741Z,23.50
2018-07-28T11:14:17.017Z,23.68
2018-07-28T11:15:16.297Z,23.80
2018-07-28T11:16:16.564Z,24.02
2018-07-28T11:17:16.823Z,24.33
2018-07-28T11:18:17.086Z,24.53
2018-07-28T11:19:16.353Z,24.77
2018-07-28T11:20:16.656Z,25.15
2018-07-28T11:21:16.659Z,25.57
2018-07-28T11:22:16.919Z,25.73
2018-07-28T11:23:17.201Z,26.17
2018-07-28T11:24:16.465Z,26.49
2018-07-28T11:25:16.736Z,26.58
2018-07-28T11:26:17.071Z,26.64
2018-07-28T11:27:16.452Z,26.97
2018-07-28T11:28:16.731Z,27.07
2018-07-28T11:29:17.002Z,27.24
2018-07-28T11:30:16.282Z,27.15
2018-07-28T11:31:16.321Z,27.18
2018-07-28T11:32:16.589Z,27.29
2018-07-28T11:33:16.904Z,27.13
2018-07-28T11:34:16.355Z,27.01
2018-07-28T11:35:16.618Z,26.94
2018-07-28T11:36:16.884Z,27.00
2018-07-28T11:37:17.149Z,27.26
2018-07-28T11:38:16.414Z,27.13
2018-07-28T11:39:16.671Z,27.49
2018-07-28T11:40:16.960Z,27.41
2018-07-28T11:41:16.986Z,27.46
2018-07-28T11:42:16.258Z,27.51
2018-07-28T11:43:16.533Z,27.61
2018-07-28T11:44:16.848Z,27.63
2018-07-28T11:45:17.134Z,27.22
2018-07-28T11:46:16.397Z,27.04
2018-07-28T11:47:16.674Z,26.91
2018-07-28T11:48:16.943Z,26.70
2018-07-28T11:49:16.276Z,26.90
2018-07-28T11:50:16.553Z,27.76
2018-07-28T11:51:16.619Z,27.83
2018-07-28T11:52:16.974Z,27.63
2018-07-28T11:53:16.255Z,27.52
2018-07-28T11:54:16.532Z,27.79
2018-07-28T11:55:16.812Z,27.79
2018-07-28T11:56:17.080Z,27.66
2018-07-28T11:57:16.355Z,27.84
2018-07-28T11:58:16.723Z,28.21
2018-07-28T11:59:17.183Z,28.31
2018-07-28T12:00:16.471Z,28.20
2018-07-28T12:01:16.525Z,28.28
2018-07-28T12:02:16.797Z,28.24
2018-07-28T12:03:17.078Z,28.49
2018-07-28T12:04:16.354Z,28.92
2018-07-28T12:05:16.636Z,29.03
2018-07-28T12:06:16.913Z,28.69
2018-07-28T12:07:17.182Z,28.62
2018-07-28T12:08:16.447Z,28.59
2018-07-28T12:09:16.717Z,28.99
2018-07-28T12:10:16.990Z,29.16
2018-07-28T12:11:17.086Z,29.03
2018-07-28T12:12:16.396Z,29.03
2018-07-28T12:13:16.676Z,29.26
2018-07-28T12:14:16.944Z,29.07
2018-07-28T12:15:16.208Z,29.14
2018-07-28T12:16:16.492Z,28.89
2018-07-28T12:17:16.766Z,28.92
2018-07-28T12:18:17.114Z,28.83
2018-07-28T12:19:16.558Z,28.82
2018-07-28T12:20:16.833Z,28.94
2018-07-28T12:21:16.881Z,29.30
2018-07-28T12:22:17.155Z,29.55
2018-07-28T12:23:16.417Z,29.55
2018-07-28T12:24:16.692Z,29.54
2018-07-28T12:25:16.969Z,29.45
2018-07-28T12:26:16.244Z,29.36
2018-07-28T12:27:16.504Z,29.84
2018-07-28T12:28:16.766Z,30.12
2018-07-28T12:29:17.034Z,30.16
2018-07-28T12:30:16.328Z,29.96
2018-07-28T12:31:16.376Z,30.12
2018-07-28T12:32:16.641Z,29.98
2018-07-28T12:33:16.918Z,29.73
2018-07-28T12:34:17.198Z,29.76
2018-07-28T12:35:16.473Z,29.69
2018-07-28T12:36:16.733Z,30.07
2018-07-28T12:37:17.005Z,30.26
2018-07-28T12:38:16.285Z,30.26
2018-07-28T12:39:16.548Z,30.43
2018-07-28T12:40:16.873Z,30.15
2018-07-28T12:41:16.925Z,30.03
2018-07-28T12:42:17.187Z,30.20
2018-07-28T12:43:16.452Z,29.93
2018-07-28T12:44:16.745Z,29.93
2018-07-28T12:45:17.024Z,29.75
2018-07-28T12:46:16.285Z,29.92
2018-07-28T12:47:16.565Z,29.85
2018-07-28T12:48:16.837Z,29.71
2018-07-28T12:49:17.116Z,29.85
2018-07-28T12:50:16.380Z,29.76
2018-07-28T12:51:16.431Z,29.76
2018-07-28T12:52:16.707Z,29.64